»·PEaware :: N127WA KTEX-KASE

N127WA :: KTEX-KASE

FLIGHT INFORMATION

Flight Status: Arrived
Operator: Privately registered:
United States
More flights under this callsign
Pilot: Joshua P. (42649)
Aircraft: BEECH AIRCRAFT SUPER KING AIR 350
(B350)
More flights by this aircraft type
Origin: KTEX Telluride Regl
United States
Destination: KASE Aspen-Pitkin Co/Sardy
United States
More flights between these airports :: More routes between these airports
Route: ETL V68 MTJ V361 DBL
File this flight plan on PilotEdge
Remarks: RMK / SIMBRIEF
Altitude:
(Current/Filed)
21,000ft
Speed:
(Current/Filed)
307kts
Departed: 14-Apr-23 01:07 PM
Arrived: 14-Apr-23 01:44 PM
Distance/Time
Traveled:
90nm/0:36
Distance/Time
To Go:
Arrived

Flight Plot

Page will automatically refresh every two minutes.


Map Options




Map Legend


Flown Route
Filed Route
Departure Airport
Arrival Airport
Navaid (VOR, NDB)
Fix

Horizontal Profiles

Position Reports

Time Latitude Longitude Heading Altitude Ground
Speed
14-Apr-23 12:37 37.954155 -107.902011 13 9054ft 0kts
14-Apr-23 12:38 37.954155 -107.902011 13 9054ft 0kts
14-Apr-23 12:39 37.954155 -107.902011 13 9054ft 0kts
14-Apr-23 12:40 37.954155 -107.902011 13 9054ft 0kts
14-Apr-23 12:41 37.954155 -107.902011 13 9054ft 0kts
14-Apr-23 12:42 37.954155 -107.902011 13 9054ft 0kts
14-Apr-23 12:43 37.954155 -107.902011 13 9054ft 0kts
14-Apr-23 12:44 37.954155 -107.902011 13 9054ft 0kts
14-Apr-23 12:45 37.954155 -107.902011 13 9054ft 0kts
14-Apr-23 12:46 37.954155 -107.902011 13 9054ft 0kts
14-Apr-23 12:47 37.954155 -107.902011 13 9054ft 0kts
14-Apr-23 12:48 37.954155 -107.902011 13 9054ft 0kts
14-Apr-23 12:49 37.954155 -107.902011 13 9054ft 0kts
14-Apr-23 12:49 37.954072 -107.902037 13 9035ft 2kts
14-Apr-23 12:51 37.953957 -107.902073 13 9062ft 0kts
14-Apr-23 12:52 37.953957 -107.902073 13 9062ft 0kts
14-Apr-23 12:53 37.953957 -107.902073 13 9062ft 0kts
14-Apr-23 12:54 37.953999 -107.901745 102 9038ft 4kts
14-Apr-23 12:54 37.953515 -107.901076 159 9056ft 1kts
14-Apr-23 12:55 37.953513 -107.901075 159 9056ft 0kts
14-Apr-23 12:57 37.953513 -107.901075 159 9054ft 0kts
14-Apr-23 12:58 37.953513 -107.901075 159 9054ft 0kts
14-Apr-23 12:58 37.953513 -107.901075 159 9054ft 0kts
14-Apr-23 12:59 37.953513 -107.901075 159 9054ft 0kts
14-Apr-23 13:00 37.953513 -107.901075 159 9054ft 0kts
14-Apr-23 13:01 37.953513 -107.901075 159 9054ft 0kts
14-Apr-23 13:03 37.953513 -107.901075 159 9054ft 0kts
14-Apr-23 13:03 37.953423 -107.901048 175 9054ft 3kts
14-Apr-23 13:04 37.952151 -107.900790 103 9050ft 10kts
14-Apr-23 13:05 37.951511 -107.897560 280 9069ft 0kts
14-Apr-23 13:06 37.956104 -107.922660 285 9261ft 139kts
14-Apr-23 13:07 37.962859 -107.972971 273 10869ft 148kts
14-Apr-23 13:08 37.968968 -108.018442 273 13257ft 115kts
14-Apr-23 13:09 37.981852 -108.066339 285 14899ft 154kts
14-Apr-23 13:10 37.998692 -108.121343 284 16452ft 179kts
14-Apr-23 13:11 38.018715 -108.187415 285 16934ft 226kts
14-Apr-23 13:12 38.046862 -108.254345 338 18849ft 216kts
14-Apr-23 13:13 38.095327 -108.213852 36 20681ft 228kts
14-Apr-23 13:14 38.155816 -108.166551 28 20902ft 282kts
14-Apr-23 13:15 38.227114 -108.112607 28 20890ft 310kts
14-Apr-23 13:16 38.302870 -108.054880 28 20922ft 322kts
14-Apr-23 13:17 38.380199 -107.995892 28 20977ft 326kts
14-Apr-23 13:18 38.458454 -107.936048 29 21001ft 328kts
14-Apr-23 13:19 38.537282 -107.877779 22 21001ft 326kts
14-Apr-23 13:20 38.619869 -107.832090 24 20939ft 327kts
14-Apr-23 13:21 38.702849 -107.782246 23 20878ft 327kts
14-Apr-23 13:22 38.776401 -107.714642 40 20865ft 331kts
14-Apr-23 13:23 38.842994 -107.632923 44 20822ft 330kts
14-Apr-23 13:24 38.909039 -107.551675 43 20828ft 329kts
14-Apr-23 13:25 38.975185 -107.470309 43 20717ft 328kts
14-Apr-23 13:26 39.040394 -107.389864 43 19592ft 318kts
14-Apr-23 13:27 39.101957 -107.313818 43 18451ft 292kts
14-Apr-23 13:28 39.159194 -107.243004 43 17231ft 280kts
14-Apr-23 13:29 39.215013 -107.173816 43 16996ft 279kts
14-Apr-23 13:30 39.270894 -107.104455 43 16965ft 276kts
14-Apr-23 13:31 39.333462 -107.068800 346 16567ft 251kts
14-Apr-23 13:32 39.403780 -107.085265 344 14969ft 259kts
14-Apr-23 13:33 39.467758 -107.071700 61 14033ft 250kts
14-Apr-23 13:34 39.465865 -106.997634 135 13973ft 196kts
14-Apr-23 13:35 39.425250 -106.954940 172 13671ft 178kts
14-Apr-23 13:36 39.381178 -106.940726 173 13041ft 151kts
14-Apr-23 13:37 39.340025 -106.924991 166 12335ft 143kts
14-Apr-23 13:38 39.302149 -106.906619 167 12164ft 156kts
14-Apr-23 13:39 39.260083 -106.886404 164 10932ft 145kts
14-Apr-23 13:40 39.231849 -106.853390 133 9325ft 139kts
14-Apr-23 13:41 39.198956 -106.839005 223 8856ft 134kts
14-Apr-23 13:42 39.216838 -106.865801 340 7807ft 94kts
14-Apr-23 13:43 39.223335 -106.867695 135 7755ft 4kts
14-Apr-23 13:44 39.223310 -106.867163 71 7757ft 0kts
14-Apr-23 13:45 39.223310 -106.867163 71 7757ft 0kts
14-Apr-23 13:46 39.223310 -106.867163 71 7757ft 0kts
14-Apr-23 13:47 39.223310 -106.867163 71 7757ft 0kts
14-Apr-23 13:48 39.223310 -106.867163 71 7757ft 0kts
14-Apr-23 13:49 39.223310 -106.867163 71 7757ft 0kts
14-Apr-23 13:50 39.223310 -106.867163 71 7757ft 0kts
14-Apr-23 13:51 39.223310 -106.867163 71 7757ft 0kts
14-Apr-23 13:52 39.223310 -106.867163 71 7757ft 0kts

Navigation Log

Ident Type
Flight plan parsing failed, navigation log unavailable